createdAt,value
2019-02-22T00:01:15.110Z,83.50
2019-02-22T00:03:44.392Z,83.40
2019-02-22T00:06:13.624Z,83.20
2019-02-22T00:08:42.935Z,83.10
2019-02-22T00:11:12.354Z,83.10
2019-02-22T00:13:41.591Z,83.10
2019-02-22T00:16:11.800Z,83.50
2019-02-22T00:18:41.047Z,83.40
2019-02-22T00:21:11.341Z,83.60
2019-02-22T00:23:40.577Z,83.30
2019-02-22T00:26:11.129Z,83.30
2019-02-22T00:28:40.607Z,83.30
2019-02-22T00:31:09.906Z,83.20
2019-02-22T00:33:39.142Z,83.10
2019-02-22T00:36:08.739Z,83.10
2019-02-22T00:38:38.140Z,83.00
2019-02-22T00:41:07.388Z,83.00
2019-02-22T00:43:36.622Z,82.80
2019-02-22T00:46:05.851Z,82.70
2019-02-22T00:48:35.116Z,82.60
2019-02-22T00:51:04.360Z,82.40
2019-02-22T00:53:33.576Z,82.20
2019-02-22T00:56:02.805Z,82.10
2019-02-22T00:58:32.060Z,82.00
2019-02-22T01:01:01.271Z,81.80
2019-02-22T01:03:31.588Z,81.80
2019-02-22T01:06:00.800Z,81.80
2019-02-22T01:08:30.040Z,81.70
2019-02-22T01:10:59.279Z,81.80
2019-02-22T01:13:28.500Z,81.70
2019-02-22T01:15:57.744Z,81.70
2019-02-22T01:18:26.956Z,81.70
2019-02-22T01:20:56.196Z,81.40
2019-02-22T01:23:25.443Z,81.30
2019-02-22T01:25:54.648Z,81.40
2019-02-22T01:28:23.888Z,81.40
2019-02-22T01:30:53.163Z,81.50
2019-02-22T01:33:22.404Z,81.50
2019-02-22T01:35:51.665Z,81.70
2019-02-22T01:38:22.038Z,81.50
2019-02-22T01:40:51.247Z,82.20
2019-02-22T01:43:20.743Z,83.40
2019-02-22T01:45:50.316Z,83.50
2019-02-22T01:48:19.595Z,83.50
2019-02-22T01:50:48.836Z,83.90
2019-02-22T01:53:18.080Z,84.10
2019-02-22T01:55:47.319Z,84.30
2019-02-22T01:58:16.491Z,84.60
2019-02-22T02:00:45.690Z,85.00
2019-02-22T02:03:14.875Z,85.10
2019-02-22T02:05:44.080Z,85.30
2019-02-22T02:08:13.301Z,85.50
2019-02-22T02:10:42.485Z,85.70
2019-02-22T02:13:11.696Z,85.80
2019-02-22T02:15:40.873Z,85.90
2019-02-22T02:18:10.077Z,85.90
2019-02-22T02:20:39.310Z,85.90
2019-02-22T02:23:08.557Z,85.70
2019-02-22T02:25:37.736Z,85.60
2019-02-22T02:28:07.989Z,85.20
2019-02-22T02:30:37.260Z,85.20
2019-02-22T02:33:06.464Z,85.10
2019-02-22T02:35:35.661Z,85.00
2019-02-22T02:38:04.849Z,85.10
2019-02-22T02:40:34.037Z,85.10
2019-02-22T02:43:03.274Z,85.20
2019-02-22T02:45:33.681Z,85.20
2019-02-22T02:48:02.873Z,85.30
2019-02-22T02:50:32.057Z,85.30
2019-02-22T02:53:01.574Z,85.40
2019-02-22T02:55:33.566Z,85.80
2019-02-22T02:58:02.937Z,85.90
2019-02-22T03:00:32.128Z,86.10
2019-02-22T03:03:01.310Z,86.20
2019-02-22T03:05:50.467Z,86.30
2019-02-22T03:08:20.320Z,86.40
2019-02-22T03:10:49.509Z,86.60
2019-02-22T03:13:18.715Z,86.80
2019-02-22T03:15:47.918Z,87.10
2019-02-22T03:18:17.097Z,87.30
2019-02-22T03:20:46.625Z,87.40
2019-02-22T03:23:15.810Z,87.60
2019-02-22T03:25:45.015Z,87.50
2019-02-22T03:28:14.445Z,87.50
2019-02-22T03:30:43.636Z,87.50
2019-02-22T03:33:13.130Z,87.40
2019-02-22T03:35:42.741Z,87.50
2019-02-22T03:38:11.936Z,87.50
2019-02-22T03:40:41.139Z,87.50
2019-02-22T03:43:10.353Z,87.60
2019-02-22T03:45:39.623Z,87.80
2019-02-22T03:48:08.806Z,88.10
2019-02-22T03:50:38.024Z,88.20
2019-02-22T03:53:08.848Z,88.40
2019-02-22T03:55:38.101Z,88.50
2019-02-22T03:58:07.369Z,88.30
2019-02-22T04:00:36.639Z,88.30
2019-02-22T04:03:05.828Z,88.20
2019-02-22T04:05:35.023Z,87.90
2019-02-22T04:08:07.015Z,87.60
2019-02-22T04:10:35.433Z,87.50
2019-02-22T04:13:04.642Z,87.50
2019-02-22T04:15:33.817Z,87.50
2019-02-22T04:18:03.039Z,87.40
2019-02-22T04:20:32.218Z,87.40
2019-02-22T04:23:01.424Z,87.30
2019-02-22T04:25:30.614Z,87.10
2019-02-22T04:27:59.814Z,86.90
2019-02-22T04:30:30.065Z,86.80
2019-02-22T04:32:59.271Z,86.60
2019-02-22T04:35:28.471Z,86.60
2019-02-22T04:37:57.695Z,86.50
2019-02-22T04:40:26.867Z,86.30
2019-02-22T04:42:56.060Z,86.20
2019-02-22T04:45:25.260Z,85.90
2019-02-22T04:47:54.455Z,85.60
2019-02-22T04:50:23.677Z,85.20
2019-02-22T04:52:52.881Z,85.20
2019-02-22T04:55:22.066Z,85.00
2019-02-22T04:57:51.259Z,84.90
2019-02-22T05:00:20.751Z,84.80
2019-02-22T05:02:49.961Z,84.90
2019-02-22T05:05:19.174Z,84.80
2019-02-22T05:07:48.396Z,84.90
2019-02-22T05:10:17.590Z,84.90
2019-02-22T05:12:46.773Z,84.70
2019-02-22T05:15:15.973Z,84.60
2019-02-22T05:17:45.171Z,84.60
2019-02-22T05:20:14.370Z,84.70
2019-02-22T05:22:43.577Z,84.90
2019-02-22T05:25:12.765Z,84.90
2019-02-22T05:27:41.977Z,85.20
2019-02-22T05:30:11.169Z,85.60
2019-02-22T05:32:40.370Z,85.90
2019-02-22T05:35:09.588Z,86.00
2019-02-22T05:37:38.776Z,86.00
2019-02-22T05:40:07.969Z,85.90
2019-02-22T05:42:37.175Z,85.80
2019-02-22T05:45:07.319Z,85.70
2019-02-22T05:47:36.506Z,85.80
2019-02-22T05:50:06.133Z,85.80
2019-02-22T05:52:35.336Z,85.60
2019-02-22T05:55:04.834Z,85.50
2019-02-22T05:57:34.027Z,85.20
2019-02-22T06:00:03.491Z,85.10
2019-02-22T06:02:34.012Z,84.90
2019-02-22T06:05:03.654Z,84.90
2019-02-22T06:07:32.845Z,84.90
2019-02-22T06:10:02.049Z,84.70
2019-02-22T06:12:34.825Z,84.70
2019-02-22T06:15:03.126Z,84.70
2019-02-22T06:17:32.586Z,85.10
2019-02-22T06:20:01.765Z,84.80
2019-02-22T06:22:30.977Z,84.40
2019-02-22T06:25:00.318Z,83.90
2019-02-22T06:27:29.572Z,83.60
2019-02-22T06:29:58.773Z,83.30
2019-02-22T06:32:27.974Z,83.10
2019-02-22T06:34:57.157Z,82.90
2019-02-22T06:37:26.358Z,83.10
2019-02-22T06:39:55.570Z,83.10
2019-02-22T06:42:24.780Z,83.00
2019-02-22T06:44:53.986Z,82.90
2019-02-22T06:47:23.184Z,82.90
2019-02-22T06:49:52.389Z,83.10
2019-02-22T06:52:21.654Z,83.30
2019-02-22T06:54:50.837Z,83.20
2019-02-22T06:57:20.047Z,83.20
2019-02-22T06:59:49.250Z,83.10
2019-02-22T07:02:18.469Z,83.10
2019-02-22T07:04:47.650Z,83.10
2019-02-22T07:07:16.854Z,83.20
2019-02-22T07:09:46.033Z,83.10
2019-02-22T07:12:35.352Z,82.80
2019-02-22T07:15:06.611Z,82.80
2019-02-22T07:17:35.790Z,82.50
2019-02-22T07:20:08.115Z,82.30
2019-02-22T07:22:37.313Z,82.10
2019-02-22T07:25:09.366Z,82.10
2019-02-22T07:27:38.568Z,82.40
2019-02-22T07:30:10.419Z,82.60
2019-02-22T07:32:39.736Z,82.60
2019-02-22T07:35:09.852Z,82.40
2019-02-22T07:37:39.266Z,82.60
2019-02-22T07:40:09.442Z,82.50
2019-02-22T07:42:38.885Z,82.20
2019-02-22T07:45:10.153Z,82.00
2019-02-22T07:47:39.334Z,81.60
2019-02-22T07:50:09.957Z,81.50
2019-02-22T07:52:39.157Z,81.40
2019-02-22T07:55:09.796Z,80.70
2019-02-22T07:57:40.134Z,80.50
2019-02-22T08:00:12.891Z,80.20
2019-02-22T08:02:42.088Z,80.10
2019-02-22T08:05:11.315Z,79.40
2019-02-22T08:07:40.500Z,78.40
2019-02-22T08:10:14.134Z,79.10
2019-02-22T08:12:43.328Z,79.30
2019-02-22T08:15:12.535Z,79.40
2019-02-22T08:17:41.726Z,78.20
2019-02-22T08:20:10.977Z,78.10
2019-02-22T08:22:40.174Z,78.60
2019-02-22T08:25:09.389Z,78.20
2019-02-22T08:27:41.718Z,78.30
2019-02-22T08:30:11.204Z,76.80
2019-02-22T08:32:40.404Z,77.30
2019-02-22T08:35:09.669Z,77.30
2019-02-22T08:37:38.849Z,77.40
2019-02-22T08:40:10.102Z,77.20
2019-02-22T08:42:39.302Z,77.30
2019-02-22T08:45:10.434Z,77.40
2019-02-22T08:47:39.602Z,77.70
2019-02-22T08:50:09.035Z,77.50
2019-02-22T08:52:38.230Z,77.10
2019-02-22T08:55:07.751Z,77.00
2019-02-22T08:57:36.946Z,76.90
2019-02-22T09:00:11.680Z,76.90
2019-02-22T09:02:40.911Z,76.80
2019-02-22T09:05:11.138Z,76.40
2019-02-22T09:07:40.356Z,76.20
2019-02-22T09:10:11.465Z,76.10
2019-02-22T09:12:40.661Z,76.10
2019-02-22T09:15:10.409Z,76.20
2019-02-22T09:17:40.569Z,76.30
2019-02-22T09:20:12.974Z,76.10
2019-02-22T09:22:42.154Z,75.60
2019-02-22T09:25:11.369Z,76.10
2019-02-22T09:27:40.554Z,75.80
2019-02-22T09:30:11.978Z,75.80
2019-02-22T09:32:41.164Z,75.90
2019-02-22T09:35:11.302Z,76.30
2019-02-22T09:37:40.486Z,76.60
2019-02-22T09:40:11.421Z,76.90
2019-02-22T09:42:40.619Z,76.20
2019-02-22T09:45:11.533Z,76.20
2019-02-22T09:47:40.719Z,75.50
2019-02-22T09:50:17.269Z,75.70
2019-02-22T09:52:46.475Z,75.80
2019-02-22T09:55:15.840Z,75.80
2019-02-22T09:57:45.048Z,76.00
2019-02-22T10:00:14.693Z,75.80
2019-02-22T10:02:44.778Z,75.50
2019-02-22T10:05:14.638Z,75.60
2019-02-22T10:07:45.042Z,74.90
2019-02-22T10:10:14.302Z,74.90
2019-02-22T10:12:43.483Z,74.50
2019-02-22T10:15:12.682Z,74.80
2019-02-22T10:17:42.837Z,73.10
2019-02-22T10:20:12.022Z,73.70
2019-02-22T10:22:41.214Z,74.20
2019-02-22T10:25:10.683Z,74.20
2019-02-22T10:27:39.892Z,74.60
2019-02-22T10:30:13.000Z,74.20
2019-02-22T10:32:42.471Z,73.90
2019-02-22T10:35:11.695Z,73.50
2019-02-22T10:37:40.888Z,73.60
2019-02-22T10:40:10.525Z,72.20
2019-02-22T10:42:39.699Z,72.40
2019-02-22T10:45:11.133Z,72.30
2019-02-22T10:47:40.326Z,71.30
2019-02-22T10:50:09.786Z,71.50
2019-02-22T10:52:38.955Z,70.10
2019-02-22T10:55:11.330Z,69.10
2019-02-22T10:57:40.614Z,67.20
2019-02-22T11:00:14.768Z,67.60
2019-02-22T11:02:44.017Z,67.30
2019-02-22T11:05:13.223Z,66.00
2019-02-22T11:07:42.402Z,66.20
2019-02-22T11:10:13.772Z,66.30
2019-02-22T11:12:43.125Z,66.30
2019-02-22T11:15:13.502Z,67.10
2019-02-22T11:17:42.679Z,66.80
2019-02-22T11:20:12.152Z,66.70
2019-02-22T11:22:41.344Z,66.70
2019-02-22T11:25:13.529Z,67.40
2019-02-22T11:27:42.701Z,67.20
2019-02-22T11:30:14.211Z,66.70
2019-02-22T11:32:43.386Z,66.50
2019-02-22T11:35:12.594Z,66.40
2019-02-22T11:37:41.790Z,66.30
2019-02-22T11:40:11.671Z,66.80
2019-02-22T11:42:40.904Z,66.50
2019-02-22T11:45:10.735Z,66.90
2019-02-22T11:47:39.920Z,66.70
2019-02-22T11:50:10.776Z,65.70
2019-02-22T11:52:40.041Z,65.70
2019-02-22T11:55:10.058Z,65.00
2019-02-22T11:57:39.415Z,64.50
2019-02-22T12:00:15.852Z,64.70
2019-02-22T12:02:45.897Z,64.20
2019-02-22T12:05:15.515Z,63.70
2019-02-22T12:07:44.689Z,63.60
2019-02-22T12:10:14.322Z,63.00
2019-02-22T12:12:43.489Z,62.00
2019-02-22T12:15:13.637Z,61.80
2019-02-22T12:17:42.992Z,61.70
2019-02-22T12:20:12.253Z,61.70
2019-02-22T12:22:41.454Z,61.70
2019-02-22T12:25:12.166Z,61.90
2019-02-22T12:27:41.361Z,62.90
2019-02-22T12:30:15.677Z,63.20
2019-02-22T12:32:44.867Z,63.00
2019-02-22T12:35:14.160Z,64.10
2019-02-22T12:37:43.306Z,65.00
2019-02-22T12:40:12.771Z,66.50
2019-02-22T12:42:41.988Z,67.20
2019-02-22T12:45:12.267Z,68.10
2019-02-22T12:47:41.436Z,69.20
2019-02-22T12:50:11.675Z,69.00
2019-02-22T12:52:41.164Z,69.80
2019-02-22T12:55:10.889Z,69.10
2019-02-22T12:57:40.085Z,69.30
2019-02-22T13:00:14.161Z,68.60
2019-02-22T13:02:43.427Z,68.70
2019-02-22T13:05:18.266Z,68.70
2019-02-22T13:07:47.476Z,68.70
2019-02-22T13:10:16.704Z,68.50
2019-02-22T13:12:46.112Z,68.40
2019-02-22T13:15:15.367Z,68.10
2019-02-22T13:17:44.596Z,67.60
2019-02-22T13:20:13.850Z,68.10
2019-02-22T13:22:43.040Z,67.90
2019-02-22T13:25:12.233Z,68.10
2019-02-22T13:27:41.419Z,67.90
2019-02-22T13:30:13.085Z,67.90
2019-02-22T13:32:42.368Z,68.50
2019-02-22T13:35:11.736Z,68.60
2019-02-22T13:37:41.170Z,68.70
2019-02-22T13:40:15.402Z,68.00
2019-02-22T13:42:44.661Z,68.60
2019-02-22T13:45:25.493Z,68.00
2019-02-22T13:47:45.314Z,68.30
2019-02-22T13:50:18.441Z,68.20
2019-02-22T13:52:47.659Z,68.50
2019-02-22T13:55:16.875Z,68.80
2019-02-22T13:57:46.038Z,69.00
2019-02-22T14:00:20.069Z,68.90
2019-02-22T14:02:49.267Z,69.30
2019-02-22T14:05:18.472Z,69.60
2019-02-22T14:07:57.366Z,69.80
2019-02-22T14:10:26.824Z,69.50
2019-02-22T14:12:56.026Z,69.60
2019-02-22T14:15:25.196Z,69.10
2019-02-22T14:17:54.389Z,68.60
2019-02-22T14:20:23.574Z,68.80
2019-02-22T14:22:52.765Z,68.90
2019-02-22T14:25:21.949Z,69.00
2019-02-22T14:27:52.215Z,69.30
2019-02-22T14:30:21.406Z,68.70
2019-02-22T14:32:50.597Z,68.70
2019-02-22T14:35:19.791Z,68.50
2019-02-22T14:37:49.007Z,68.50
2019-02-22T14:40:18.249Z,68.40
2019-02-22T14:42:47.832Z,68.30
2019-02-22T14:45:17.101Z,67.80
2019-02-22T14:47:46.359Z,67.70
2019-02-22T14:50:17.312Z,67.80
2019-02-22T14:52:46.549Z,68.20
2019-02-22T14:55:15.745Z,68.10
2019-02-22T14:57:45.451Z,67.80
2019-02-22T15:00:22.133Z,68.20
2019-02-22T15:02:52.305Z,68.50
2019-02-22T15:05:21.505Z,68.80
2019-02-22T15:07:51.458Z,68.30
2019-02-22T15:10:20.649Z,68.30
2019-02-22T15:12:49.854Z,68.60
2019-02-22T15:15:21.429Z,68.50
2019-02-22T15:17:58.273Z,68.80
2019-02-22T15:20:27.518Z,68.80
2019-02-22T15:22:56.726Z,69.20
2019-02-22T15:25:25.937Z,68.80
2019-02-22T15:27:55.118Z,69.20
2019-02-22T15:30:24.321Z,69.00
2019-02-22T15:32:53.510Z,68.60
2019-02-22T15:35:22.681Z,69.10
2019-02-22T15:37:51.881Z,68.90
2019-02-22T15:40:21.327Z,69.10
2019-02-22T15:42:51.597Z,68.60
2019-02-22T15:45:20.867Z,68.80
2019-02-22T15:47:50.181Z,68.90
2019-02-22T15:50:19.675Z,68.90
2019-02-22T15:52:50.042Z,69.30
2019-02-22T15:55:19.245Z,69.10
2019-02-22T15:57:48.413Z,69.50
2019-02-22T16:00:29.659Z,69.70
2019-02-22T16:02:58.867Z,69.60
2019-02-22T16:05:29.672Z,69.80
2019-02-22T16:07:58.862Z,70.30
2019-02-22T16:10:28.174Z,70.60
2019-02-22T16:12:57.441Z,71.20
2019-02-22T16:15:26.689Z,71.40
2019-02-22T16:17:55.889Z,71.40
2019-02-22T16:20:25.079Z,71.70
2019-02-22T16:22:54.285Z,71.90
2019-02-22T16:25:23.465Z,72.00
2019-02-22T16:27:53.561Z,71.80
2019-02-22T16:30:24.389Z,71.90
2019-02-22T16:32:53.562Z,71.70
2019-02-22T16:35:22.761Z,71.60
2019-02-22T16:37:52.004Z,71.60
2019-02-22T16:40:22.381Z,71.60
2019-02-22T16:42:51.589Z,71.80
2019-02-22T16:45:20.770Z,72.00
2019-02-22T16:47:49.965Z,71.80
2019-02-22T16:50:19.145Z,71.90
2019-02-22T16:52:48.361Z,71.80
2019-02-22T16:55:17.548Z,72.10
2019-02-22T16:57:47.080Z,72.10
2019-02-22T17:00:16.668Z,72.30
2019-02-22T17:02:45.858Z,72.40
2019-02-22T17:05:16.492Z,72.60
2019-02-22T17:07:45.747Z,72.50
2019-02-22T17:10:14.945Z,72.70
2019-02-22T17:12:44.158Z,72.90
2019-02-22T17:15:14.735Z,73.10
2019-02-22T17:17:43.915Z,73.30
2019-02-22T17:20:14.657Z,73.20
2019-02-22T17:22:43.838Z,73.30
2019-02-22T17:25:38.289Z,73.70
2019-02-22T17:28:07.924Z,74.10
2019-02-22T17:30:37.123Z,74.40
2019-02-22T17:33:06.294Z,74.70
2019-02-22T17:35:35.496Z,75.00
2019-02-22T17:38:05.738Z,75.20
2019-02-22T17:40:35.062Z,75.50
2019-02-22T17:43:04.415Z,75.60
2019-02-22T17:45:33.598Z,75.80
2019-02-22T17:48:02.797Z,75.90
2019-02-22T17:50:31.981Z,76.00
2019-02-22T17:53:01.927Z,76.20
2019-02-22T17:55:31.124Z,76.40
2019-02-22T17:58:00.294Z,76.50
2019-02-22T18:00:29.497Z,76.50
2019-02-22T18:02:58.674Z,76.60
2019-02-22T18:05:27.874Z,76.80
2019-02-22T18:07:57.062Z,76.90
2019-02-22T18:10:26.286Z,76.90
2019-02-22T18:12:55.466Z,76.70
2019-02-22T18:15:24.661Z,76.60
2019-02-22T18:17:53.843Z,76.70
2019-02-22T18:20:23.057Z,76.60
2019-02-22T18:22:52.281Z,76.70
2019-02-22T18:25:21.485Z,76.80
2019-02-22T18:27:50.970Z,77.00
2019-02-22T18:30:22.016Z,77.00
2019-02-22T18:32:51.214Z,77.10
2019-02-22T18:35:20.411Z,77.10
2019-02-22T18:37:49.590Z,77.20
2019-02-22T18:40:20.602Z,77.20
2019-02-22T18:42:50.058Z,77.20
2019-02-22T18:45:19.297Z,77.20
2019-02-22T18:47:48.497Z,77.00
2019-02-22T18:50:17.695Z,77.20
2019-02-22T18:52:46.893Z,77.20
2019-02-22T18:55:16.115Z,76.80
2019-02-22T18:57:45.312Z,76.90
2019-02-22T19:00:20.212Z,76.90
2019-02-22T19:02:49.513Z,76.90
2019-02-22T19:05:18.795Z,76.90
2019-02-22T19:07:48.112Z,77.00
2019-02-22T19:10:19.440Z,77.00
2019-02-22T19:12:48.640Z,77.00
2019-02-22T19:15:17.811Z,77.10
2019-02-22T19:17:47.147Z,77.10
2019-02-22T19:20:19.269Z,77.20
2019-02-22T19:22:48.455Z,77.10
2019-02-22T19:25:17.620Z,77.00
2019-02-22T19:27:46.856Z,77.20
2019-02-22T19:30:19.532Z,77.40
2019-02-22T19:32:48.726Z,77.50
2019-02-22T19:35:17.904Z,77.50
2019-02-22T19:37:47.213Z,77.60
2019-02-22T19:40:22.297Z,77.80
2019-02-22T19:42:51.476Z,77.90
2019-02-22T19:45:20.657Z,77.90
2019-02-22T19:47:49.851Z,78.00
2019-02-22T19:50:19.114Z,78.10
2019-02-22T19:52:48.366Z,78.20
2019-02-22T19:55:18.501Z,78.20
2019-02-22T19:57:47.670Z,78.30
2019-02-22T20:00:19.894Z,78.30
2019-02-22T20:02:49.074Z,78.40
2019-02-22T20:05:18.262Z,78.40
2019-02-22T20:07:48.078Z,78.40
2019-02-22T20:10:18.895Z,78.50
2019-02-22T20:12:48.356Z,78.40
2019-02-22T20:15:18.181Z,78.50
2019-02-22T20:17:53.921Z,78.80
2019-02-22T20:20:19.351Z,78.90
2019-02-22T20:22:51.560Z,78.90
2019-02-22T20:25:20.854Z,78.80
2019-02-22T20:27:50.059Z,79.00
2019-02-22T20:30:20.490Z,79.10
2019-02-22T20:32:49.669Z,79.60
2019-02-22T20:35:26.878Z,80.10
2019-02-22T20:37:56.380Z,80.20
2019-02-22T20:40:25.942Z,80.50
2019-02-22T20:42:55.296Z,80.60
2019-02-22T20:45:24.495Z,80.90
2019-02-22T20:48:04.527Z,80.80
2019-02-22T20:50:25.870Z,80.60
2019-02-22T20:52:55.041Z,80.80
2019-02-22T20:55:24.240Z,80.50
2019-02-22T20:57:53.421Z,80.50
2019-02-22T21:00:27.209Z,80.50
2019-02-22T21:02:56.475Z,80.60
2019-02-22T21:05:25.738Z,81.80
2019-02-22T21:07:54.931Z,81.40
2019-02-22T21:10:24.113Z,80.40
2019-02-22T21:12:53.375Z,79.70
2019-02-22T21:15:22.547Z,79.90
2019-02-22T21:17:51.753Z,80.00
2019-02-22T21:20:22.276Z,80.20
2019-02-22T21:22:51.429Z,80.30
2019-02-22T21:25:20.617Z,80.40
2019-02-22T21:27:49.805Z,80.70
2019-02-22T21:30:20.413Z,80.90
2019-02-22T21:32:49.611Z,81.00
2019-02-22T21:35:18.779Z,81.00
2019-02-22T21:37:48.015Z,80.90
2019-02-22T21:40:17.185Z,80.90
2019-02-22T21:42:46.390Z,80.90
2019-02-22T21:45:16.502Z,81.00
2019-02-22T21:47:54.135Z,81.00
2019-02-22T21:50:17.217Z,81.10
2019-02-22T21:52:46.396Z,81.20
2019-02-22T21:55:17.220Z,81.20
2019-02-22T21:57:46.566Z,81.20
2019-02-22T22:00:27.614Z,81.40
2019-02-22T22:02:56.831Z,81.40
2019-02-22T22:05:26.004Z,81.50
2019-02-22T22:07:55.176Z,81.60
2019-02-22T22:10:24.351Z,81.90
2019-02-22T22:12:53.561Z,82.00
2019-02-22T22:15:22.724Z,81.90
2019-02-22T22:17:51.907Z,81.90
2019-02-22T22:20:21.109Z,82.00
2019-02-22T22:22:50.305Z,82.20
2019-02-22T22:25:19.494Z,82.40
2019-02-22T22:27:48.682Z,82.40
2019-02-22T22:30:17.858Z,82.20
2019-02-22T22:32:47.049Z,82.50
2019-02-22T22:35:17.359Z,82.30
2019-02-22T22:37:47.524Z,82.40
2019-02-22T22:40:16.715Z,82.40
2019-02-22T22:42:45.888Z,82.40
2019-02-22T22:45:16.461Z,82.50
2019-02-22T22:47:45.689Z,82.60
2019-02-22T22:50:16.535Z,82.80
2019-02-22T22:52:45.729Z,82.90
2019-02-22T22:55:14.957Z,83.10
2019-02-22T22:57:44.157Z,83.20
2019-02-22T23:00:51.344Z,83.30
2019-02-22T23:03:21.622Z,83.30
2019-02-22T23:05:52.182Z,83.40
2019-02-22T23:08:21.436Z,83.50
2019-02-22T23:10:50.699Z,83.50
2019-02-22T23:13:21.658Z,83.60
2019-02-22T23:15:50.852Z,83.80
2019-02-22T23:18:20.033Z,83.90
2019-02-22T23:20:49.522Z,83.90
2019-02-22T23:23:18.721Z,83.90
2019-02-22T23:25:47.980Z,83.90
2019-02-22T23:28:18.202Z,83.90
2019-02-22T23:30:47.402Z,83.90
2019-02-22T23:33:16.854Z,83.90
2019-02-22T23:35:46.084Z,84.00
2019-02-22T23:38:15.276Z,84.00
2019-02-22T23:40:44.451Z,84.10
2019-02-22T23:43:13.954Z,84.10
2019-02-22T23:45:43.207Z,84.10
2019-02-22T23:48:12.459Z,84.20
2019-02-22T23:50:41.638Z,84.10
2019-02-22T23:53:10.828Z,84.00
2019-02-22T23:55:40.006Z,84.00
2019-02-22T23:58:09.167Z,83.80
